Ubersee, Germany

6:32 PM CEST on July 27, 2017 (GMT +0200)
Westerbuchberg | | Change Station

Elev 1883 ft 47.81 °N, 12.48 °E | Updated 6 minutes ago

Overcast
Overcast
62.2 °F
Feels Like 62.2 °F
N
1.2
Wind Variable Wind from West
Gusts 4.3 mph

Today
High -- | Low -- °F
--% Chance of Precip.
Yesterday
High -- | Low -- °F
Precip. -- in
Pressure 29.92 in
Visibility 6.2 miles
Clouds Few 1300 ft
Mostly Cloudy 5000 ft
Dew Point 58 °F
Humidity 85%
Rainfall 0.10 in
Snow Depth Not available.
5:40 AM 8:51 PM
Waxing Crescent, 22% visible
METAR LOWS 271620Z 10004KT 050V140 9999 FEW013 BKN050 17/15 Q1013 NOSIG
Pressure 29.92 in
Visibility 6.2 miles
Clouds Few 1300 ft
Mostly Cloudy 5000 ft
Dew Point 58 °F
Humidity 85%
Rainfall 0.10 in
Snow Depth Not available.
5:40 AM 8:51 PM
Waxing Crescent, 22% visible
METAR LOWS 271620Z 10004KT 050V140 9999 FEW013 BKN050 17/15 Q1013 NOSIG

Get Severe Weather Alerts

Thanks for signing up!

Be on the lookout for a verification email in your inbox.

You'll start receiving the daily forecast at 6 AM.

×

10-Day Weather Forecast

×

Almanac

Astronomy

Jul. 27, 2017 Rise Set
Actual Time
Civil Twilight
Nautical Twilight
Astronomical Twilight
Moon
Length of Visible Light
Length of Day
Tomorrow will be .
, % of the Moon is Illuminated

Today's Extremes

Country Highs Country Lows

Community

WunderPhotos

Category 6

Welcome to Category 6. This is the collective home for Weather Underground's featured writeups by Dr. Jeff Masters (right), Bob Henson (left), Chris Burt, and other regular contributors.

Nearby

Air Quality

  Air Quality AQ Index Pollutant
Not available.

Snow Depth

Station Depth Elevation

Earthquake Activity

City Distance Mag. Time & Date
Minimum magnitude displayed is 2.5.

Coastal Water Temperatures

Place Temperature

Stations

Nearby Weather Stations

Station Location Temp. Windchill Dew Point Humidity Wind Precip. Elev Updated Type